Weather at Kindersley Airport

Public forecast

Using degrees Celsius for public forecast. Weather courtesy of forecast.io.

Current aviation weather report (METAR) for Kindersley Airport

Retrieved 2021/11/28 04:00 UTC (58 minutes ago):

CYKY 280400Z 15018G24KT 15SM SCT092 BKN220 M02/M08 A2988 RMK AC3CI4 PRESFR SLP158

Closest aviation forecast (TAF) to Kindersley Airport

Closest forecast is North Battleford Airport, 82.7 nm (153.2 km) NNE. Retrieved 2021-11-28 00:51 UTC (4 hours ago):

TAF CYQW 272349Z 2800/2812 VRB03KT P6SM BKN240 FM280300 12012KT P6SM BKN120 BKN240 RMK FCST BASED ON AUTO OBS NXT FCST BY 280600Z